Time;durP1;ratioP1;P1;durP2;ratioP2;P2;SDS_P1;SDS_P2;PMS_P1;PMS_P2;Temp;Humidity;BMP_temperature;BMP_pressure;BME280_temperature;BME280_humidity;BME280_pressure;Samples;Min_cycle;Max_cycle;Signal;HPM_P1;HPM_P2
2022/08/11 00:00:35;;;;;;;6.22;2.15;;;;;;;21.39;57.94;100500.75;5092617;28;20031;-80
2022/08/11 00:03:11;;;;;;;8.90;2.60;;;;;;;21.46;57.67;100490.72;5094662;28;20032;-79
2022/08/11 00:05:56;;;;;;;9.95;2.03;;;;;;;21.45;57.90;100489.00;5099236;28;20035;-79
2022/08/11 00:08:24;;;;;;;10.73;1.90;;;;;;;21.56;57.51;100492.03;5081321;28;20036;-81
2022/08/11 00:10:59;;;;;;;3.33;2.00;;;;;;;21.60;57.33;100493.34;5099670;28;20040;-78
2022/08/11 00:13:56;;;;;;;3.95;2.20;;;;;;;21.66;57.21;100495.28;5095498;28;20048;-78
2022/08/11 00:16:24;;;;;;;4.40;1.98;;;;;;;21.71;56.95;100487.31;5089455;28;20055;-78
2022/08/11 00:18:56;;;;;;;4.63;2.47;;;;;;;21.58;57.43;100484.50;5092891;28;20035;-78
2022/08/11 00:21:24;;;;;;;3.28;2.15;;;;;;;21.61;57.11;100478.63;5092833;28;20429;-78
2022/08/11 00:23:56;;;;;;;2.55;1.70;;;;;;;21.50;57.34;100470.09;5093400;28;20129;-78
2022/08/11 00:26:24;;;;;;;13.35;2.03;;;;;;;21.53;57.57;100480.63;5093659;28;20100;-78
2022/08/11 00:28:51;;;;;;;2.38;1.75;;;;;;;21.62;57.28;100480.28;5092261;28;20048;-78
2022/08/11 00:31:49;;;;;;;7.30;1.80;;;;;;;21.65;57.21;100479.91;5093198;28;20116;-77
2022/08/11 00:34:19;;;;;;;5.60;1.75;;;;;;;21.53;57.21;100467.81;5093147;28;20020;-78
2022/08/11 00:36:52;;;;;;;11.35;2.33;;;;;;;21.68;56.96;100482.22;5091618;28;20111;-78
2022/08/11 00:39:21;;;;;;;8.68;2.53;;;;;;;21.68;57.23;100482.22;5092885;28;20028;-78
2022/08/11 00:42:34;;;;;;;3.92;1.83;;;;;;;21.61;57.34;100484.09;5092967;28;20027;-78
2022/08/11 00:45:23;;;;;;;19.80;2.75;;;;;;;21.68;57.18;100482.22;5060503;28;20043;-79
2022/08/11 00:47:54;;;;;;;5.05;1.85;;;;;;;21.69;57.18;100486.66;5092998;28;20458;-77
2022/08/11 00:50:41;;;;;;;7.47;1.98;;;;;;;21.65;57.32;100495.47;5091583;28;20134;-77
2022/08/11 00:53:32;;;;;;;4.47;2.60;;;;;;;21.52;57.35;100479.81;5091733;28;20028;-79
2022/08/11 00:56:04;;;;;;;13.98;2.70;;;;;;;21.56;57.60;100503.00;5092921;28;20030;-79
2022/08/11 00:59:06;;;;;;;8.73;2.55;;;;;;;21.62;57.33;100507.66;5092728;28;20097;-79
2022/08/11 01:01:53;;;;;;;8.40;3.25;;;;;;;21.62;57.40;100513.13;5092909;28;20032;-79
2022/08/11 01:04:36;;;;;;;2.83;2.25;;;;;;;21.68;57.12;100531.50;5092719;28;20165;-79
2022/08/11 01:07:12;;;;;;;8.65;2.65;;;;;;;21.67;57.19;100518.88;5092710;28;20039;-79
2022/08/11 01:09:43;;;;;;;5.07;2.08;;;;;;;21.65;57.24;100517.38;5092898;28;20035;-80
2022/08/11 01:12:44;;;;;;;5.78;2.63;;;;;;;21.62;57.19;100515.03;5092590;28;20031;-78
2022/08/11 01:15:48;;;;;;;7.15;2.92;;;;;;;21.62;57.17;100518.63;5091217;28;20085;-79
2022/08/11 01:19:01;;;;;;;7.43;3.13;;;;;;;21.70;56.77;100506.69;5091150;28;20044;-78
2022/08/11 01:22:04;;;;;;;7.60;2.72;;;;;;;21.61;57.04;100516.94;5069803;28;20110;-78
2022/08/11 01:25:07;;;;;;;7.13;2.85;;;;;;;21.60;57.22;100503.44;5080810;28;20036;-78
2022/08/11 01:27:50;;;;;;;8.27;2.85;;;;;;;21.52;57.35;100518.13;5092562;28;20020;-79
2022/08/11 01:31:02;;;;;;;5.82;2.78;;;;;;;21.41;57.90;100509.59;5091045;28;20032;-77
2022/08/11 01:33:58;;;;;;;4.70;2.65;;;;;;;21.48;57.60;100494.94;5092132;28;20516;-78
2022/08/11 01:36:38;;;;;;;7.18;2.40;;;;;;;21.35;57.82;100492.09;5090934;28;20470;-78
2022/08/11 01:39:36;;;;;;;3.88;2.90;;;;;;;21.36;57.85;100490.19;5098481;28;20525;-80
2022/08/11 01:45:02;;;;;;;9.80;3.05;;;;;;;21.55;57.17;100473.94;5093586;28;20071;-79
2022/08/11 01:48:19;;;;;;;8.10;3.05;;;;;;;21.52;57.25;100468.03;5093219;28;20043;-78
2022/08/11 01:50:55;;;;;;;3.63;2.72;;;;;;;21.52;57.18;100457.06;5082615;28;20088;-78
2022/08/11 01:53:41;;;;;;;8.25;3.30;;;;;;;21.61;56.89;100454.00;5092670;28;20035;-78
2022/08/11 01:56:46;;;;;;;4.93;2.70;;;;;;;21.55;57.11;100459.41;5092082;28;20466;-78
2022/08/11 01:59:23;;;;;;;11.10;3.10;;;;;;;21.48;57.21;100456.63;5090404;28;20098;-78
2022/08/11 02:05:19;;;;;;;4.80;2.88;;;;;;;21.45;57.41;100445.22;5074949;28;20038;-79
2022/08/11 02:08:03;;;;;;;10.77;3.58;;;;;;;21.49;57.32;100461.06;5090365;28;20103;-77
2022/08/11 02:13:45;;;;;;;5.43;3.28;;;;;;;21.58;56.87;100454.38;5090456;28;20108;-79
2022/08/11 02:16:23;;;;;;;5.72;2.85;;;;;;;21.51;57.17;100466.31;5091800;28;20063;-78
2022/08/11 02:25:28;;;;;;;9.68;3.80;;;;;;;21.34;57.76;100465.78;5091890;28;20035;-79
2022/08/11 02:28:27;;;;;;;5.38;3.70;;;;;;;21.21;58.10;100470.28;5090649;28;20039;-78
2022/08/11 02:33:56;;;;;;;9.38;3.70;;;;;;;21.11;58.81;100489.75;5091661;28;20115;-79
2022/08/11 02:36:36;;;;;;;5.50;3.33;;;;;;;21.13;58.78;100484.94;5089950;28;20077;-77
2022/08/11 02:39:11;;;;;;;9.57;3.47;;;;;;;21.23;58.44;100496.41;5090813;28;20024;-79
2022/08/11 02:44:54;;;;;;;5.18;3.25;;;;;;;21.33;58.30;100490.59;5091732;28;20026;-77
2022/08/11 02:47:38;;;;;;;5.75;3.53;;;;;;;21.30;58.51;100493.72;5091362;28;20034;-78
2022/08/11 02:50:24;;;;;;;4.90;3.25;;;;;;;21.39;58.21;100503.47;5091571;28;20023;-78
2022/08/11 02:53:08;;;;;;;6.13;3.67;;;;;;;21.44;58.23;100499.09;5089502;28;20058;-78
2022/08/11 02:56:27;;;;;;;7.30;3.58;;;;;;;21.60;57.67;100487.03;5091122;28;20016;-78
2022/08/11 03:02:40;;;;;;;8.63;3.08;;;;;;;21.71;57.37;100498.25;5094097;28;20074;-77
2022/08/11 03:05:19;;;;;;;6.05;3.35;;;;;;;21.57;58.11;100488.28;5093644;28;20536;-77
2022/08/11 03:08:17;;;;;;;5.30;3.50;;;;;;;21.67;57.85;100494.25;5095047;28;20028;-77
2022/08/11 03:17:47;;;;;;;10.80;3.67;;;;;;;21.68;58.04;100497.81;5099787;28;20051;-78
2022/08/11 03:20:16;;;;;;;10.90;3.55;;;;;;;21.61;58.27;100511.47;5097960;28;20039;-78
2022/08/11 03:23:07;;;;;;;5.13;3.58;;;;;;;21.51;58.48;100491.81;5094398;28;20107;-78
2022/08/11 03:25:33;;;;;;;7.18;3.60;;;;;;;21.61;58.33;100502.41;5095496;28;20024;-78
2022/08/11 03:28:18;;;;;;;6.70;3.97;;;;;;;21.56;58.73;100503.00;5095603;28;20469;-78
2022/08/11 03:30:53;;;;;;;11.52;3.95;;;;;;;21.66;58.57;100502.66;5093565;28;20032;-78
2022/08/11 03:36:19;;;;;;;5.53;3.53;;;;;;;21.70;58.63;100507.53;5094772;28;20035;-79
2022/08/11 03:39:00;;;;;;;5.80;3.63;;;;;;;21.59;58.84;100502.59;5094806;28;20051;-78
2022/08/11 03:41:46;;;;;;;8.15;3.45;;;;;;;21.69;58.61;100503.09;5093374;28;20405;-80
2022/08/11 03:44:42;;;;;;;9.13;3.15;;;;;;;21.73;58.78;100513.66;5078248;28;20025;-77
2022/08/11 03:47:35;;;;;;;5.65;3.33;;;;;;;21.61;59.22;100511.47;5094406;28;20038;-79
2022/08/11 03:50:26;;;;;;;10.50;3.22;;;;;;;21.65;58.99;100507.25;5092807;28;20085;-79
2022/08/11 03:53:13;;;;;;;4.40;3.15;;;;;;;21.52;59.25;100504.44;5093834;28;20470;-77
2022/08/11 03:56:26;;;;;;;7.53;3.50;;;;;;;21.51;59.60;100497.28;5092599;28;20357;-77
2022/08/11 03:59:16;;;;;;;12.65;3.53;;;;;;;21.45;59.74;100516.38;5093005;28;20035;-79
2022/08/11 04:01:44;;;;;;;9.27;3.35;;;;;;;21.49;59.66;100517.69;5093955;28;20036;-78
2022/08/11 04:04:13;;;;;;;9.65;3.83;;;;;;;21.45;59.88;100506.28;5093833;28;20060;-78
2022/08/11 04:07:06;;;;;;;7.13;3.25;;;;;;;21.58;59.78;100506.41;5092569;28;20146;-77
2022/08/11 04:09:54;;;;;;;12.18;3.47;;;;;;;21.61;59.62;100500.53;5093757;28;20028;-78
2022/08/11 04:12:57;;;;;;;11.25;3.10;;;;;;;21.64;59.62;100497.38;5091799;28;20034;-78
2022/08/11 04:18:41;;;;;;;6.63;3.53;;;;;;;21.63;59.73;100500.31;5093824;28;19923;-78
2022/08/11 04:21:25;;;;;;;9.55;3.63;;;;;;;21.67;59.78;100513.41;5093768;28;20031;-79
2022/08/11 04:24:17;;;;;;;6.43;3.67;;;;;;;21.74;59.56;100510.72;5093543;28;20089;-78
2022/08/11 04:27:04;;;;;;;;;;;;;;;21.62;60.11;100512.28;5093877;28;20032;-77
2022/08/11 04:29:54;;;;;;;9.35;4.32;;;;;;;21.75;59.99;100519.75;5096056;28;20334;-78
2022/08/11 04:32:55;;;;;;;7.50;3.90;;;;;;;21.75;60.50;100517.03;5093133;28;20055;-78
2022/08/11 04:35:27;;;;;;;6.07;4.38;;;;;;;21.77;60.49;100521.28;5091914;28;20028;-78
2022/08/11 04:38:30;;;;;;;9.07;4.23;;;;;;;21.77;60.68;100504.84;5091978;28;20474;-79
2022/08/11 04:41:32;;;;;;;8.10;4.50;;;;;;;21.90;60.66;100515.91;5093161;28;20028;-79
2022/08/11 04:44:28;;;;;;;22.50;4.50;;;;;;;21.86;60.91;100503.66;5093126;28;20093;-79
2022/08/11 05:03:45;;;;;;;5.22;3.75;;;;;;;21.89;61.91;100524.34;5092175;28;20089;-78
2022/08/11 05:07:00;;;;;;;11.93;5.70;;;;;;;21.75;62.61;100511.53;5070134;28;20024;-78
2022/08/11 05:10:07;;;;;;;6.63;4.70;;;;;;;21.81;62.46;100510.75;5010361;28;20127;-79
2022/08/11 05:12:52;;;;;;;10.18;4.28;;;;;;;21.92;62.11;100532.16;5059240;28;20510;-79
2022/08/11 05:36:16;;;;;;;10.68;4.68;;;;;;;22.69;60.26;100557.44;5092160;28;20034;-78
2022/08/11 05:58:35;;;;;;;11.23;3.72;;;;;;;23.19;58.51;100561.59;5091048;28;20437;-78
2022/08/11 06:01:03;;;;;;;12.43;4.43;;;;;;;23.35;57.75;100560.38;5090420;28;20032;-77
2022/08/11 06:03:31;;;;;;;14.73;4.07;;;;;;;23.41;57.61;100565.91;5090307;28;20042;-77
2022/08/11 06:05:58;;;;;;;10.80;3.35;;;;;;;23.45;57.03;100561.69;5073547;28;20028;-78
2022/08/11 06:08:35;;;;;;;7.40;3.85;;;;;;;23.57;56.95;100560.00;5090519;28;20101;-78
2022/08/11 06:11:04;;;;;;;10.60;3.78;;;;;;;23.58;56.66;100555.34;5073977;28;20038;-79
2022/08/11 06:13:34;;;;;;;6.55;3.42;;;;;;;23.60;56.88;100553.25;5089834;28;20055;-79
2022/08/11 06:16:01;;;;;;;68.88;8.93;;;;;;;23.66;56.69;100547.75;5074025;28;20039;-79
2022/08/11 06:18:28;;;;;;;9.57;3.83;;;;;;;23.88;55.68;100542.03;5073707;28;20035;-77
2022/08/11 06:20:56;;;;;;;19.25;3.75;;;;;;;23.81;55.65;100536.53;5091813;28;20024;-79
2022/08/11 06:23:29;;;;;;;10.05;3.38;;;;;;;23.88;55.16;100555.78;5091694;28;20021;-78
2022/08/11 06:25:57;;;;;;;6.60;3.58;;;;;;;23.96;54.81;100536.31;5095241;28;20035;-80
2022/08/11 06:28:36;;;;;;;7.32;3.53;;;;;;;24.08;54.85;100551.06;5093330;28;20028;-78
2022/08/11 06:31:15;;;;;;;10.40;4.07;;;;;;;24.01;55.15;100551.09;5088491;28;20056;-77
2022/08/11 06:34:00;;;;;;;7.18;4.00;;;;;;;24.17;54.69;100549.81;5090946;28;20088;-79
2022/08/11 06:36:33;;;;;;;7.57;3.85;;;;;;;24.25;53.99;100546.84;5092577;28;20036;-79
2022/08/11 06:39:15;;;;;;;7.25;3.90;;;;;;;24.35;53.87;100547.22;5095726;28;20032;-79
2022/08/11 06:41:55;;;;;;;10.70;5.63;;;;;;;24.48;53.67;100533.44;5094247;28;20032;-80
2022/08/11 06:44:43;;;;;;;5.53;3.17;;;;;;;24.66;52.85;100533.59;5095289;28;20046;-78
2022/08/11 06:47:11;;;;;;;10.75;3.55;;;;;;;24.73;52.53;100536.31;5095215;28;20912;-79
2022/08/11 06:52:32;;;;;;;12.07;3.42;;;;;;;24.74;51.68;100540.72;5095037;28;20401;-79
2022/08/11 06:55:07;;;;;;;24.05;4.10;;;;;;;24.75;51.27;100532.25;5094706;28;20028;-78
2022/08/11 07:00:28;;;;;;;7.78;3.33;;;;;;;24.95;50.81;100543.22;5079912;28;20081;-79
2022/08/11 07:03:11;;;;;;;13.48;3.08;;;;;;;25.10;50.34;100545.66;5093872;28;20028;-79
2022/08/11 07:05:54;;;;;;;10.25;2.88;;;;;;;25.13;49.55;100545.22;5093686;28;20035;-78
2022/08/11 07:17:33;;;;;;;5.93;3.08;;;;;;;25.60;48.68;100549.34;5095419;28;20492;-78
2022/08/11 07:28:54;;;;;;;9.50;2.63;;;;;;;25.85;47.47;100559.28;5093789;28;20117;-78
2022/08/11 07:31:40;;;;;;;8.20;3.28;;;;;;;25.99;47.41;100563.59;5094533;28;20816;-79
2022/08/11 07:34:21;;;;;;;13.13;2.92;;;;;;;26.14;46.76;100559.66;5076737;28;20020;-79
2022/08/11 07:36:56;;;;;;;8.63;3.10;;;;;;;26.30;46.25;100561.84;5094420;28;20035;-79
2022/08/11 07:39:33;;;;;;;17.65;3.50;;;;;;;26.42;45.87;100557.28;5089070;28;20028;-77
2022/08/11 07:42:03;;;;;;;9.90;2.70;;;;;;;26.57;45.44;100560.47;5094211;28;20060;-78
2022/08/11 07:44:30;;;;;;;13.38;3.17;;;;;;;26.63;45.84;100548.53;5094140;28;20020;-78
2022/08/11 07:52:34;;;;;;;5.43;2.80;;;;;;;26.85;45.14;100563.53;5093172;28;20031;-79
2022/08/11 07:55:12;;;;;;;43.83;3.10;;;;;;;26.96;45.08;100560.00;5095145;28;20020;-78
2022/08/11 08:19:46;;;;;;;16.60;2.80;;;;;;;27.45;42.98;100547.81;5093491;28;20043;-79
2022/08/11 08:22:16;;;;;;;15.55;3.05;;;;;;;27.43;43.41;100540.84;5091758;28;20089;-78
2022/08/11 08:24:43;;;;;;;16.35;2.92;;;;;;;27.58;42.58;100547.59;5091836;28;20039;-79
2022/08/11 08:27:11;;;;;;;13.57;2.70;;;;;;;27.60;42.58;100544.59;5091741;28;20047;-79
2022/08/11 08:32:22;;;;;;;6.35;3.05;;;;;;;27.63;42.20;100527.53;5093233;28;20031;-78
2022/08/11 08:34:51;;;;;;;9.38;2.58;;;;;;;27.75;41.63;100535.84;5093185;28;20111;-78
2022/08/11 08:37:19;;;;;;;9.23;3.08;;;;;;;27.75;41.78;100541.38;5093200;28;20043;-80
2022/08/11 08:39:46;;;;;;;3.95;2.22;;;;;;;27.88;41.83;100528.16;5092947;28;20031;-78
2022/08/11 08:42:31;;;;;;;8.90;3.13;;;;;;;27.97;40.96;100529.50;5091107;28;20054;-80
2022/08/11 08:45:17;;;;;;;3.35;2.38;;;;;;;27.97;40.50;100537.78;5091671;28;20036;-78
2022/08/11 08:48:14;;;;;;;9.23;2.50;;;;;;;28.07;40.50;100528.91;5092704;28;20032;-79
2022/08/11 08:53:40;;;;;;;9.73;3.20;;;;;;;28.37;39.69;100523.22;5093034;28;20093;-79
2022/08/11 08:56:08;;;;;;;4.32;3.17;;;;;;;28.47;39.47;100523.44;5092818;28;20511;-78
2022/08/11 08:58:38;;;;;;;4.50;3.13;;;;;;;28.56;39.45;100517.25;5092536;28;20059;-78
2022/08/11 09:01:05;;;;;;;7.63;3.35;;;;;;;28.77;39.09;100517.72;5091414;28;20405;-78
2022/08/11 09:03:36;;;;;;;9.10;2.13;;;;;;;28.90;38.40;100512.72;5091072;28;20031;-78
2022/08/11 09:06:05;;;;;;;6.30;2.38;;;;;;;28.87;38.66;100506.84;5092390;28;20050;-78
2022/08/11 09:08:34;;;;;;;14.00;2.67;;;;;;;28.96;37.93;100514.50;5091173;28;20394;-79
2022/08/11 09:13:45;;;;;;;10.55;2.92;;;;;;;29.11;38.18;100503.69;5092252;28;20051;-78
2022/08/11 09:16:12;;;;;;;7.38;2.72;;;;;;;29.27;37.06;100512.31;5092183;28;20028;-78
2022/08/11 09:18:40;;;;;;;11.63;2.70;;;;;;;29.26;37.24;100505.13;5092576;28;20023;-78
2022/08/11 09:21:07;;;;;;;11.35;2.75;;;;;;;29.29;37.48;100493.53;5090961;28;20019;-78
2022/08/11 09:29:04;;;;;;;6.15;2.28;;;;;;;29.57;37.37;100496.25;5094709;28;20046;-79
2022/08/11 09:31:32;;;;;;;8.95;2.78;;;;;;;29.52;37.29;100493.38;5095861;28;20084;-79
2022/08/11 09:34:01;;;;;;;9.05;2.50;;;;;;;29.65;37.34;100504.13;5094333;28;20016;-78
2022/08/11 09:42:04;;;;;;;12.52;2.63;;;;;;;29.89;36.52;100494.53;5091975;28;20042;-78
2022/08/11 09:44:51;;;;;;;5.72;2.20;;;;;;;29.85;36.21;100498.91;5091012;28;20090;-79
2022/08/11 09:47:19;;;;;;;22.85;3.10;;;;;;;29.88;36.10;100503.94;5090424;28;20042;-79
2022/08/11 09:49:47;;;;;;;8.48;2.45;;;;;;;29.86;35.84;100499.75;5091797;28;20094;-78
2022/08/11 09:52:14;;;;;;;13.13;2.70;;;;;;;29.96;35.82;100494.38;5090351;28;20032;-79
2022/08/11 09:54:43;;;;;;;18.98;3.03;;;;;;;29.92;35.95;100488.50;5091589;28;20020;-80
2022/08/11 09:59:55;;;;;;;10.77;2.45;;;;;;;29.97;35.38;100462.75;5091915;28;20089;-79
2022/08/11 10:02:29;;;;;;;5.85;1.92;;;;;;;29.99;35.05;100472.53;5090803;28;20452;-79
2022/08/11 10:07:49;;;;;;;2.75;1.60;;;;;;;30.15;35.17;100471.59;5091500;28;20035;-78
2022/08/11 10:10:21;;;;;;;9.93;2.50;;;;;;;30.22;35.20;100475.03;5091346;28;20444;-77
2022/08/11 10:12:58;;;;;;;8.32;2.25;;;;;;;30.22;35.29;100455.63;5094417;28;20549;-79
2022/08/11 10:15:38;;;;;;;9.43;3.03;;;;;;;30.35;34.89;100470.22;5090532;28;20020;-79
2022/08/11 10:21:06;;;;;;;15.38;3.13;;;;;;;30.52;34.27;100482.13;5091485;28;20035;-78
2022/08/11 10:34:43;;;;;;;10.07;2.60;;;;;;;31.03;34.12;100484.41;5091118;28;20043;-78
2022/08/11 10:37:09;;;;;;;6.85;2.20;;;;;;;31.09;33.84;100460.28;5091153;28;20124;-79
2022/08/11 10:39:38;;;;;;;15.65;2.75;;;;;;;31.42;33.32;100475.84;5091115;28;20028;-78
2022/08/11 10:44:55;;;;;;;8.50;2.65;;;;;;;31.67;32.99;100471.38;5079849;28;20040;-78
2022/08/11 10:47:38;;;;;;;6.05;2.35;;;;;;;31.83;32.34;100482.59;5089945;28;20024;-79
2022/08/11 10:58:47;;;;;;;6.65;2.13;;;;;;;31.87;32.35;100479.00;5090772;28;20039;-77
2022/08/11 11:01:14;;;;;;;10.93;2.10;;;;;;;31.86;31.79;100460.66;5091118;28;20032;-77
2022/08/11 11:03:44;;;;;;;5.97;2.40;;;;;;;31.88;31.72;100464.00;5092246;28;20028;-78
2022/08/11 11:06:15;;;;;;;8.05;2.40;;;;;;;31.93;31.77;100461.22;5091698;28;20516;-79
2022/08/11 11:08:51;;;;;;;5.22;1.73;;;;;;;31.89;32.00;100432.28;5093374;28;20039;-79
2022/08/11 11:11:19;;;;;;;7.07;2.53;;;;;;;32.04;31.66;100457.44;5091816;28;20040;-79
2022/08/11 11:19:22;;;;;;;19.00;3.38;;;;;;;32.26;31.22;100454.50;5091178;28;20051;-78
2022/08/11 11:21:52;;;;;;;12.02;2.47;;;;;;;32.22;31.01;100442.22;5090886;28;20024;-78
2022/08/11 11:24:41;;;;;;;7.47;2.15;;;;;;;32.26;31.17;100449.75;5094783;28;20016;-77
2022/08/11 11:27:38;;;;;;;9.68;2.55;;;;;;;32.34;31.00;100440.88;5094671;28;20027;-80
2022/08/11 11:30:09;;;;;;;8.15;1.92;;;;;;;32.51;30.83;100450.94;5076610;28;20034;-79
2022/08/11 11:32:34;;;;;;;7.10;2.83;;;;;;;32.60;31.20;100439.03;5093119;28;20106;-79
2022/08/11 11:35:14;;;;;;;27.77;4.95;;;;;;;32.75;30.67;100432.69;5094434;28;20446;-78
2022/08/11 11:37:44;;;;;;;29.05;2.55;;;;;;;32.94;30.25;100442.19;5092853;28;20032;-77
2022/08/11 11:40:21;;;;;;;8.02;2.90;;;;;;;33.02;29.93;100441.66;5094441;28;20500;-77
2022/08/11 11:42:50;;;;;;;11.80;2.15;;;;;;;33.17;30.07;100440.84;5092862;28;20028;-77
2022/08/11 11:45:22;;;;;;;2.53;1.67;;;;;;;33.09;29.85;100425.50;5094293;28;20028;-79
2022/08/11 11:47:51;;;;;;;5.43;1.85;;;;;;;33.08;29.64;100423.84;5094261;28;20024;-78
2022/08/11 11:50:22;;;;;;;8.13;2.67;;;;;;;33.09;29.90;100427.47;5094228;28;20027;-77
2022/08/11 11:52:50;;;;;;;7.43;2.20;;;;;;;33.09;30.09;100414.34;5075842;28;20024;-79
2022/08/11 11:55:17;;;;;;;15.77;2.53;;;;;;;33.10;29.76;100429.97;5092164;28;20089;-78
2022/08/11 12:03:14;;;;;;;19.58;2.35;;;;;;;33.16;29.49;100428.84;5093888;28;20032;-78
2022/08/11 12:05:43;;;;;;;7.95;2.13;;;;;;;33.14;29.61;100441.41;5075034;28;20109;-78
2022/08/11 12:08:14;;;;;;;11.73;2.95;;;;;;;33.20;28.89;100431.94;5092930;28;20036;-79
2022/08/11 12:10:46;;;;;;;19.93;2.40;;;;;;;33.25;29.34;100435.56;5075969;28;20493;-78
2022/08/11 12:16:21;;;;;;;6.03;2.72;;;;;;;33.39;28.83;100425.50;5070908;28;20512;-80
2022/08/11 12:18:51;;;;;;;12.27;2.53;;;;;;;33.58;28.85;100434.13;5054557;28;20567;-78
2022/08/11 12:21:18;;;;;;;6.75;2.35;;;;;;;33.75;28.63;100439.44;5082118;28;20036;-78
2022/08/11 12:29:19;;;;;;;20.25;2.90;;;;;;;33.89;28.05;100433.00;5092197;28;20082;-78
2022/08/11 12:31:46;;;;;;;7.10;2.22;;;;;;;33.84;28.33;100421.84;5093698;28;20101;-78
2022/08/11 12:34:15;;;;;;;14.63;2.67;;;;;;;33.91;28.40;100433.53;5091735;28;20032;-78
2022/08/11 12:37:02;;;;;;;4.80;2.15;;;;;;;34.09;28.29;100434.91;5095403;28;20024;-77
2022/08/11 12:45:26;;;;;;;11.45;2.40;;;;;;;34.00;28.09;100425.44;5094607;28;20093;-78
2022/08/11 12:53:33;;;;;;;6.50;2.50;;;;;;;33.61;28.27;100432.78;5093265;28;20062;-79
2022/08/11 12:58:50;;;;;;;7.15;1.85;;;;;;;33.60;28.79;100434.72;5092076;28;20055;-79
2022/08/11 13:06:46;;;;;;;4.40;2.30;;;;;;;33.04;28.87;100436.63;5092491;28;20130;-78
2022/08/11 13:09:14;;;;;;;11.13;1.98;;;;;;;32.98;29.38;100434.94;5092802;28;20032;-78
2022/08/11 13:14:27;;;;;;;6.47;2.40;;;;;;;32.82;29.27;100433.25;5092456;28;20156;-78
2022/08/11 13:19:57;;;;;;;8.68;2.83;;;;;;;32.87;29.68;100433.28;5079957;28;20032;-79
2022/08/11 13:22:25;;;;;;;33.25;6.95;;;;;;;33.05;29.88;100424.38;5092346;28;20024;-79
2022/08/11 13:24:54;;;;;;;4.68;2.70;;;;;;;33.26;29.41;100420.50;5092191;28;20035;-79
2022/08/11 13:27:21;;;;;;;104.78;15.15;;;;;;;33.17;29.55;100427.75;5074183;28;20453;-78
2022/08/11 13:29:48;;;;;;;12.88;3.75;;;;;;;33.08;29.49;100429.41;5073873;28;20027;-78
2022/08/11 13:32:15;;;;;;;12.73;3.83;;;;;;;33.01;29.55;100426.03;5091896;28;20032;-79
2022/08/11 13:34:41;;;;;;;8.63;3.10;;;;;;;32.88;29.75;100423.78;5074134;28;20063;-78
2022/08/11 13:37:13;;;;;;;3.17;1.90;;;;;;;32.70;29.90;100421.50;5092446;28;20366;-77
2022/08/11 13:39:46;;;;;;;5.47;3.03;;;;;;;32.68;29.56;100418.19;5092064;28;20042;-78
2022/08/11 13:42:15;;;;;;;7.80;3.10;;;;;;;32.71;29.81;100417.63;5092184;28;20430;-78
2022/08/11 13:44:41;;;;;;;7.70;2.22;;;;;;;32.81;29.89;100420.44;5091273;28;20040;-78
2022/08/11 13:47:12;;;;;;;9.07;2.78;;;;;;;32.84;30.06;100417.09;5091909;28;20032;-79
2022/08/11 13:49:41;;;;;;;10.38;3.08;;;;;;;32.85;30.19;100418.75;5073953;28;20036;-79
2022/08/11 13:52:15;;;;;;;13.13;2.70;;;;;;;32.90;30.11;100413.22;5090696;28;20026;-79
2022/08/11 13:54:45;;;;;;;6.72;2.95;;;;;;;32.73;30.13;100404.25;5090681;28;20035;-80
2022/08/11 13:57:14;;;;;;;7.53;2.88;;;;;;;32.74;30.19;100429.06;5090586;28;20028;-79
2022/08/11 13:59:41;;;;;;;12.27;3.55;;;;;;;32.68;29.97;100423.75;5091536;28;20050;-78
2022/08/11 14:02:13;;;;;;;4.25;3.00;;;;;;;32.66;29.71;100429.59;5091156;28;20077;-78
2022/08/11 14:04:51;;;;;;;17.45;2.25;;;;;;;32.60;30.06;100432.66;5091491;28;20066;-78
2022/08/11 14:07:23;;;;;;;7.97;2.72;;;;;;;32.45;30.33;100424.19;5090257;28;20065;-79
2022/08/11 14:09:57;;;;;;;5.03;2.38;;;;;;;32.25;30.96;100434.16;5091765;28;20038;-80
2022/08/11 14:15:22;;;;;;;17.60;3.13;;;;;;;32.15;31.13;100428.53;5096234;28;20047;-79
2022/08/11 14:18:07;;;;;;;12.65;2.92;;;;;;;32.21;30.72;100427.47;5092809;28;20063;-78
2022/08/11 14:23:31;;;;;;;5.85;2.17;;;;;;;32.38;30.44;100429.22;5091917;28;20039;-78
2022/08/11 14:28:43;;;;;;;3.70;2.22;;;;;;;32.33;30.93;100441.97;5091452;28;20031;-78
2022/08/11 14:31:09;;;;;;;5.35;2.25;;;;;;;32.28;30.33;100430.84;5089663;28;20047;-78
2022/08/11 14:33:36;;;;;;;5.32;2.25;;;;;;;32.13;30.55;100422.44;5091194;28;20032;-78
2022/08/11 14:36:04;;;;;;;12.00;2.42;;;;;;;32.11;31.12;100430.19;5091009;28;20030;-79
2022/08/11 14:38:33;;;;;;;4.85;2.53;;;;;;;31.96;31.11;100412.53;5090113;28;20028;-79
2022/08/11 14:49:18;;;;;;;14.63;3.45;;;;;;;31.94;31.27;100439.81;5091049;28;20081;-78
2022/08/11 14:51:47;;;;;;;5.25;3.60;;;;;;;31.74;31.14;100429.41;5090881;28;20469;-78
2022/08/11 14:56:59;;;;;;;4.47;3.10;;;;;;;31.68;31.32;100448.00;5092882;28;20066;-78
2022/08/11 14:59:25;;;;;;;15.75;3.78;;;;;;;31.64;31.79;100438.53;5095053;28;20032;-79
2022/08/11 15:04:35;;;;;;;13.32;3.10;;;;;;;31.54;31.99;100432.03;5094787;28;20119;-78
2022/08/11 15:07:02;;;;;;;15.43;3.92;;;;;;;31.49;31.85;100429.25;5077366;28;20067;-79
2022/08/11 15:09:30;;;;;;;10.68;2.80;;;;;;;31.51;32.19;100429.78;5093487;28;20078;-79
2022/08/11 15:12:08;;;;;;;9.82;2.83;;;;;;;31.53;32.18;100422.06;5094891;28;20406;-78
2022/08/11 15:17:21;;;;;;;11.18;2.97;;;;;;;31.45;32.37;100430.84;5094666;28;20050;-78
2022/08/11 15:25:20;;;;;;;6.07;2.20;;;;;;;31.50;31.95;100433.66;5094995;28;20169;-78
2022/08/11 15:39:03;;;;;;;18.08;3.38;;;;;;;31.27;32.33;100435.72;5094725;28;20132;-77
2022/08/11 15:47:13;;;;;;;13.35;3.22;;;;;;;31.18;32.65;100437.31;5102928;28;20031;-78
2022/08/11 15:49:44;;;;;;;12.52;4.40;;;;;;;31.15;32.39;100437.00;5128967;27;20506;-77
2022/08/11 15:52:16;;;;;;;10.45;2.53;;;;;;;31.13;32.61;100434.47;5096836;28;20105;-79
2022/08/11 15:54:45;;;;;;;4.97;3.47;;;;;;;31.11;32.29;100436.69;5093269;28;20097;-79
2022/08/11 16:04:10;;;;;;;9.80;3.25;;;;;;;30.99;32.31;100433.22;5094132;28;20024;-78
2022/08/11 16:05:20;;;;;;;5.17;2.47;;;;;;;30.77;32.71;100430.47;5093966;28;20112;-79
2022/08/11 16:07:48;;;;;;;12.98;3.22;;;;;;;30.67;32.90;100447.03;5093006;28;20028;-78
2022/08/11 16:10:20;;;;;;;18.00;9.10;;;;;;;30.66;33.11;100447.31;5093520;28;20035;-79
2022/08/11 16:18:17;;;;;;;12.98;3.75;;;;;;;30.55;33.59;100449.09;5093679;28;20039;-79
2022/08/11 16:20:48;;;;;;;19.20;3.95;;;;;;;30.56;33.37;100445.25;5093823;28;20031;-78
2022/08/11 16:23:17;;;;;;;5.75;2.90;;;;;;;30.50;33.28;100440.72;5094025;28;20024;-78
2022/08/11 16:25:45;;;;;;;3.40;2.25;;;;;;;30.44;33.65;100443.72;5093735;28;20106;-78
2022/08/11 16:28:13;;;;;;;12.48;3.58;;;;;;;30.45;33.55;100450.94;5093330;28;20028;-78
2022/08/11 16:30:43;;;;;;;13.43;3.22;;;;;;;30.49;33.79;100450.16;5093492;28;20532;-77
2022/08/11 16:33:10;;;;;;;7.03;2.65;;;;;;;30.46;33.61;100449.81;5092023;28;20363;-79
2022/08/11 16:38:34;;;;;;;3.53;1.85;;;;;;;30.35;34.00;100448.00;5093474;28;20492;-77
2022/08/11 16:41:12;;;;;;;10.55;3.33;;;;;;;30.31;34.09;100447.69;5093347;28;20121;-79
2022/08/11 16:49:23;;;;;;;5.45;2.45;;;;;;;30.11;34.51;100451.03;5092007;28;20092;-78
2022/08/11 16:51:49;;;;;;;5.68;2.95;;;;;;;30.01;34.68;100439.81;5093095;28;20058;-78
2022/08/11 16:54:15;;;;;;;13.05;2.95;;;;;;;29.94;35.06;100455.78;5093130;28;20478;-78
2022/08/11 16:56:49;;;;;;;11.25;4.07;;;;;;;29.85;35.08;100449.00;5091527;28;20032;-78
2022/08/11 16:59:37;;;;;;;6.80;2.97;;;;;;;29.78;35.14;100445.56;5092693;28;20028;-78
2022/08/11 17:02:11;;;;;;;8.70;3.28;;;;;;;29.75;35.12;100448.84;5092773;28;20062;-78
2022/08/11 17:13:19;;;;;;;9.90;3.08;;;;;;;29.55;35.49;100446.59;5092194;28;20055;-78
2022/08/11 17:16:06;;;;;;;28.08;10.25;;;;;;;29.46;35.59;100450.88;5092527;28;20459;-77
2022/08/11 17:18:55;;;;;;;14.77;3.30;;;;;;;29.35;35.89;100443.50;5077217;28;20124;-78
2022/08/11 17:21:25;;;;;;;10.95;3.78;;;;;;;29.30;36.28;100459.19;5092178;28;20032;-79